Terminal Aerodrome Forecast
Issued by NWS Tuscon, AZ

Home | Current Version | Previous Version | Text Only | Print | Product List | Glossary On
Versions: 1 2 3 4 5 6 7 8 9 10 11 12 13 14
000
FTUS45 KTWC 281740
TAFDUG
TAF
KDUG 281740Z 2818/2918 09016G25KT P6SM SKC
     FM282100 09011G18KT P6SM SCT090 SCT200
     FM290300 09010KT P6SM SCT200
     FM290700 05010KT P6SM SKC=

USA.gov is the U.S. government's official web portal to all federal, state and local government web resources and services.